createdAt,value
2023-03-15T00:01:47.023Z,12.20
2023-03-15T00:04:20.277Z,13.50
2023-03-15T00:06:53.853Z,11.00
2023-03-15T00:09:26.990Z,11.00
2023-03-15T00:11:59.754Z,10.40
2023-03-15T00:14:33.062Z,11.00
2023-03-15T00:17:05.905Z,13.50
2023-03-15T00:19:38.534Z,11.20
2023-03-15T00:22:11.705Z,10.20
2023-03-15T00:24:44.864Z,9.90
2023-03-15T00:27:17.648Z,8.90
2023-03-15T00:29:50.751Z,10.60
2023-03-15T00:32:23.392Z,10.80
2023-03-15T00:34:55.930Z,11.00
2023-03-15T00:37:28.893Z,12.70
2023-03-15T00:40:01.493Z,9.80
2023-03-15T00:42:34.108Z,10.20
2023-03-15T00:45:07.069Z,8.10
2023-03-15T00:47:39.691Z,10.00
2023-03-15T00:50:12.781Z,9.70
2023-03-15T00:52:45.633Z,9.40
2023-03-15T00:55:22.032Z,10.60
2023-03-15T00:57:54.864Z,10.80
2023-03-15T01:00:28.095Z,10.90
2023-03-15T01:03:01.312Z,10.00
2023-03-15T01:05:34.008Z,10.40
2023-03-15T01:08:07.011Z,12.50
2023-03-15T01:10:39.816Z,27.40
2023-03-15T01:13:13.203Z,19.00
2023-03-15T01:15:48.891Z,14.60
2023-03-15T01:18:21.355Z,10.40
2023-03-15T01:20:53.795Z,10.50
2023-03-15T01:26:01.810Z,10.90
2023-03-15T01:28:35.192Z,10.30
2023-03-15T01:31:09.196Z,9.60
2023-03-15T01:33:41.602Z,9.90
2023-03-15T01:36:14.361Z,11.40
2023-03-15T01:38:47.851Z,9.80
2023-03-15T01:41:21.577Z,9.30
2023-03-15T01:43:55.052Z,10.40
2023-03-15T01:46:35.241Z,10.20
2023-03-15T01:49:34.291Z,9.50
2023-03-15T01:52:26.281Z,9.60
2023-03-15T01:55:12.982Z,9.90
2023-03-15T01:58:00.722Z,11.50
2023-03-15T02:00:36.230Z,9.50
2023-03-15T02:03:21.844Z,12.60
2023-03-15T02:06:04.029Z,9.70
2023-03-15T02:09:15.282Z,9.00
2023-03-15T02:11:49.292Z,10.30
2023-03-15T02:14:22.955Z,12.50
2023-03-15T02:16:55.601Z,10.30
2023-03-15T02:19:58.769Z,10.50
2023-03-15T02:22:52.642Z,9.30
2023-03-15T02:25:47.070Z,11.00
2023-03-15T02:28:21.626Z,10.20
2023-03-15T02:30:54.844Z,13.00
2023-03-15T02:33:32.086Z,10.70
2023-03-15T02:36:19.019Z,12.00
2023-03-15T02:38:52.594Z,12.80
2023-03-15T02:41:36.966Z,12.00
2023-03-15T02:44:20.255Z,12.20
2023-03-15T02:46:55.253Z,11.80
2023-03-15T02:49:34.071Z,12.40
2023-03-15T02:52:07.370Z,12.00
2023-03-15T02:54:43.878Z,12.30
2023-03-15T02:57:18.613Z,11.60
2023-03-15T02:59:52.153Z,10.90
2023-03-15T03:02:25.481Z,12.90
2023-03-15T03:04:58.948Z,11.20
2023-03-15T03:07:32.007Z,9.70
2023-03-15T03:10:09.473Z,12.00
2023-03-15T03:12:55.519Z,13.90
2023-03-15T03:15:35.920Z,14.40
2023-03-15T03:18:09.113Z,11.30
2023-03-15T03:20:41.834Z,11.00
2023-03-15T03:23:14.931Z,11.00
2023-03-15T03:25:47.882Z,12.80
2023-03-15T03:28:21.130Z,10.90
2023-03-15T03:30:55.230Z,10.60
2023-03-15T03:33:28.300Z,13.80
2023-03-15T03:36:05.012Z,12.10
2023-03-15T03:38:38.498Z,11.30
2023-03-15T03:41:13.189Z,15.90
2023-03-15T03:43:46.380Z,11.60
2023-03-15T03:46:19.323Z,11.10
2023-03-15T03:48:55.748Z,10.60
2023-03-15T03:51:29.069Z,11.90
2023-03-15T03:54:02.666Z,14.20
2023-03-15T03:56:35.982Z,11.90
2023-03-15T03:59:09.844Z,12.60
2023-03-15T04:01:56.421Z,11.40
2023-03-15T04:04:29.334Z,12.00
2023-03-15T04:07:02.479Z,13.20
2023-03-15T04:09:42.359Z,14.20
2023-03-15T04:12:14.993Z,11.10
2023-03-15T04:14:50.022Z,10.60
2023-03-15T04:17:24.365Z,14.20
2023-03-15T04:19:57.389Z,13.00
2023-03-15T04:22:35.385Z,21.10
2023-03-15T04:25:36.399Z,20.20
2023-03-15T04:28:43.456Z,17.30
2023-03-15T04:31:39.992Z,18.40
2023-03-15T04:34:39.662Z,15.30
2023-03-15T04:37:22.357Z,12.10
2023-03-15T04:40:37.081Z,13.30
2023-03-15T04:43:42.103Z,14.50
2023-03-15T04:46:44.639Z,13.50
2023-03-15T04:49:45.616Z,17.50
2023-03-15T04:52:35.856Z,18.90
2023-03-15T04:55:31.682Z,19.60
2023-03-15T04:58:22.152Z,16.60
2023-03-15T05:01:30.288Z,15.00
2023-03-15T05:04:40.127Z,11.80
2023-03-15T05:07:25.117Z,15.60
2023-03-15T05:10:18.476Z,13.90
2023-03-15T05:13:12.870Z,16.60
2023-03-15T05:16:06.671Z,14.40
2023-03-15T05:18:58.173Z,21.40
2023-03-15T05:21:53.047Z,15.50
2023-03-15T05:24:26.646Z,24.60
2023-03-15T05:27:19.963Z,18.10
2023-03-15T05:30:12.453Z,17.10
2023-03-15T05:33:06.234Z,15.50
2023-03-15T05:35:59.919Z,18.00
2023-03-15T05:38:53.747Z,17.50
2023-03-15T05:41:52.755Z,21.00
2023-03-15T05:45:03.799Z,17.20
2023-03-15T05:47:57.225Z,17.60
2023-03-15T05:50:46.379Z,14.70
2023-03-15T05:53:45.310Z,16.50
2023-03-15T05:56:44.065Z,17.90
2023-03-15T05:59:45.471Z,14.90
2023-03-15T06:02:50.928Z,15.10
2023-03-15T06:05:36.146Z,17.70
2023-03-15T06:08:14.103Z,19.80
2023-03-15T06:10:48.934Z,19.20
2023-03-15T06:13:22.465Z,23.20
2023-03-15T06:15:56.523Z,16.30
2023-03-15T06:18:30.103Z,20.10
2023-03-15T06:21:03.371Z,28.60
2023-03-15T06:23:36.404Z,33.30
2023-03-15T06:26:10.444Z,20.50
2023-03-15T06:28:48.271Z,17.80
2023-03-15T06:31:22.440Z,19.10
2023-03-15T06:34:02.620Z,18.30
2023-03-15T06:36:37.789Z,19.10
2023-03-15T06:39:12.756Z,18.40
2023-03-15T06:41:46.739Z,13.20
2023-03-15T06:44:24.363Z,15.10
2023-03-15T06:47:01.523Z,17.00
2023-03-15T06:49:36.646Z,17.70
2023-03-15T06:52:11.860Z,17.90
2023-03-15T06:54:45.802Z,13.20
2023-03-15T06:57:19.263Z,15.00
2023-03-15T06:59:54.902Z,13.60
2023-03-15T07:02:38.285Z,15.70
2023-03-15T07:05:12.089Z,19.30
2023-03-15T07:07:45.460Z,15.40
2023-03-15T07:10:18.951Z,15.40
2023-03-15T07:12:52.178Z,13.10
2023-03-15T07:15:25.611Z,15.60
2023-03-15T07:17:59.284Z,14.30
2023-03-15T07:20:32.320Z,10.00
2023-03-15T07:23:05.932Z,15.40
2023-03-15T07:25:53.999Z,14.50
2023-03-15T07:28:31.837Z,15.10
2023-03-15T07:31:07.433Z,12.70
2023-03-15T07:33:41.274Z,11.20
2023-03-15T07:36:14.761Z,15.10
2023-03-15T07:38:48.431Z,13.30
2023-03-15T07:41:24.278Z,14.50
2023-03-15T07:44:04.052Z,12.70
2023-03-15T07:46:42.834Z,14.30
2023-03-15T07:49:17.460Z,15.80
2023-03-15T07:51:50.606Z,12.80
2023-03-15T07:54:24.056Z,18.70
2023-03-15T07:56:57.872Z,13.00
2023-03-15T07:59:31.610Z,14.40
2023-03-15T08:02:09.141Z,14.40
2023-03-15T08:04:44.051Z,16.20
2023-03-15T08:07:17.353Z,9.80
2023-03-15T08:09:51.045Z,10.90
2023-03-15T08:12:25.134Z,9.10
2023-03-15T08:15:01.657Z,12.40
2023-03-15T08:17:39.385Z,10.50
2023-03-15T08:20:15.841Z,19.10
2023-03-15T08:22:53.657Z,11.10
2023-03-15T08:25:27.895Z,11.60
2023-03-15T08:28:02.027Z,11.80
2023-03-15T08:30:40.466Z,14.10
2023-03-15T08:33:17.182Z,12.70
2023-03-15T08:35:57.740Z,14.30
2023-03-15T08:38:31.464Z,17.70
2023-03-15T08:41:05.215Z,10.10
2023-03-15T08:43:38.726Z,14.00
2023-03-15T08:46:12.181Z,11.50
2023-03-15T08:48:45.668Z,12.60
2023-03-15T08:51:20.179Z,15.10
2023-03-15T08:53:56.091Z,13.40
2023-03-15T08:56:30.086Z,14.20
2023-03-15T08:59:04.142Z,11.90
2023-03-15T09:01:41.316Z,12.90
2023-03-15T09:04:14.999Z,13.10
2023-03-15T09:06:48.870Z,12.10
2023-03-15T09:09:22.361Z,15.30
2023-03-15T09:11:56.786Z,12.90
2023-03-15T09:14:31.811Z,12.50
2023-03-15T09:17:05.590Z,13.30
2023-03-15T09:19:38.859Z,12.20
2023-03-15T09:22:34.740Z,10.70
2023-03-15T09:25:11.739Z,10.80
2023-03-15T09:27:44.787Z,11.50
2023-03-15T09:30:19.240Z,11.80
2023-03-15T09:32:52.502Z,10.90
2023-03-15T09:35:25.935Z,12.70
2023-03-15T09:37:59.344Z,11.80
2023-03-15T09:40:36.383Z,10.10
2023-03-15T09:43:14.902Z,13.00
2023-03-15T09:46:20.324Z,11.90
2023-03-15T09:48:57.333Z,10.40
2023-03-15T09:51:41.923Z,11.00
2023-03-15T09:54:19.043Z,12.00
2023-03-15T09:57:05.641Z,13.70
2023-03-15T09:59:48.573Z,13.40
2023-03-15T10:02:33.609Z,12.60
2023-03-15T10:05:17.354Z,11.90
2023-03-15T10:07:50.979Z,8.50
2023-03-15T10:10:38.423Z,17.50
2023-03-15T10:13:40.733Z,14.30
2023-03-15T10:16:45.695Z,9.30
2023-03-15T10:19:41.549Z,15.00
2023-03-15T10:22:17.503Z,10.00
2023-03-15T10:25:05.675Z,11.40
2023-03-15T10:27:48.207Z,15.20
2023-03-15T10:30:30.567Z,17.20
2023-03-15T10:33:30.122Z,9.80
2023-03-15T10:36:14.379Z,17.60
2023-03-15T10:38:51.621Z,10.80
2023-03-15T10:41:46.787Z,7.90
2023-03-15T10:44:27.511Z,10.60
2023-03-15T10:47:23.169Z,14.10
2023-03-15T10:50:02.999Z,9.80
2023-03-15T10:52:45.158Z,33.20
2023-03-15T10:55:22.788Z,13.40
2023-03-15T10:58:01.869Z,13.60
2023-03-15T11:00:39.050Z,15.60
2023-03-15T11:03:27.917Z,22.80
2023-03-15T11:06:03.409Z,9.80
2023-03-15T11:08:43.911Z,13.00
2023-03-15T11:11:17.403Z,12.30
2023-03-15T11:14:03.691Z,15.70
2023-03-15T11:16:41.396Z,10.50
2023-03-15T11:19:22.014Z,13.50
2023-03-15T11:21:57.161Z,12.60
2023-03-15T11:24:36.181Z,13.00
2023-03-15T11:27:21.653Z,28.30
2023-03-15T11:30:00.351Z,10.20
2023-03-15T11:32:35.370Z,12.10
2023-03-15T11:35:38.767Z,10.50
2023-03-15T11:38:27.022Z,12.60
2023-03-15T11:41:01.588Z,10.80
2023-03-15T11:44:11.476Z,14.30
2023-03-15T11:46:54.927Z,11.10
2023-03-15T11:49:51.130Z,11.70
2023-03-15T11:52:27.612Z,10.10
2023-03-15T11:55:06.762Z,18.10
2023-03-15T11:57:44.877Z,11.20
2023-03-15T12:00:36.037Z,14.70
2023-03-15T12:03:31.439Z,12.90
2023-03-15T12:06:09.266Z,13.00
2023-03-15T12:08:51.427Z,15.50
2023-03-15T12:11:24.130Z,11.10
2023-03-15T12:14:06.883Z,11.00
2023-03-15T12:16:47.952Z,13.10
2023-03-15T12:19:23.673Z,12.00
2023-03-15T12:22:00.390Z,12.40
2023-03-15T12:24:39.088Z,9.30
2023-03-15T12:27:23.302Z,11.90
2023-03-15T12:30:03.830Z,17.20
2023-03-15T12:32:51.631Z,9.70
2023-03-15T12:35:27.405Z,11.20
2023-03-15T12:38:03.199Z,9.90
2023-03-15T12:40:56.461Z,15.40
2023-03-15T12:43:43.555Z,12.90
2023-03-15T12:46:43.242Z,12.70
2023-03-15T12:49:28.068Z,14.10
2023-03-15T12:52:05.148Z,12.30
2023-03-15T12:54:47.039Z,13.60
2023-03-15T12:57:54.503Z,9.30
2023-03-15T13:00:33.565Z,13.40
2023-03-15T13:03:08.602Z,10.40
2023-03-15T13:06:16.160Z,10.00
2023-03-15T13:09:01.563Z,11.30
2023-03-15T13:11:46.681Z,10.90
2023-03-15T13:14:42.311Z,10.10
2023-03-15T13:17:17.830Z,10.80
2023-03-15T13:20:13.213Z,11.60
2023-03-15T13:23:18.269Z,9.50
2023-03-15T13:25:54.026Z,10.40
2023-03-15T13:28:49.066Z,17.00
2023-03-15T13:31:27.643Z,11.30
2023-03-15T13:34:16.789Z,10.60
2023-03-15T13:36:55.688Z,11.20
2023-03-15T13:39:31.850Z,11.80
2023-03-15T13:42:18.279Z,9.60
2023-03-15T13:45:04.267Z,12.40
2023-03-15T13:47:41.599Z,11.50
2023-03-15T13:50:19.154Z,12.90
2023-03-15T13:52:53.055Z,13.10
2023-03-15T13:55:29.522Z,10.00
2023-03-15T13:58:08.601Z,10.80
2023-03-15T14:00:42.205Z,10.00
2023-03-15T14:03:23.105Z,11.60
2023-03-15T14:05:58.278Z,10.90
2023-03-15T14:08:34.927Z,9.80
2023-03-15T14:11:19.718Z,11.90
2023-03-15T14:14:03.068Z,14.30
2023-03-15T14:17:03.206Z,10.80
2023-03-15T14:19:39.079Z,14.30
2023-03-15T14:22:18.966Z,14.90
2023-03-15T14:24:53.528Z,17.50
2023-03-15T14:27:31.221Z,14.60
2023-03-15T14:30:06.988Z,13.20
2023-03-15T14:32:42.015Z,14.80
2023-03-15T14:35:46.494Z,11.10
2023-03-15T14:38:25.967Z,11.50
2023-03-15T14:41:22.152Z,13.90
2023-03-15T14:43:55.845Z,13.00
2023-03-15T14:46:29.252Z,15.80
2023-03-15T14:49:04.191Z,15.90
2023-03-15T14:51:37.635Z,17.30
2023-03-15T14:54:13.857Z,23.40
2023-03-15T14:56:47.256Z,14.60
2023-03-15T14:59:20.452Z,18.90
2023-03-15T15:01:59.742Z,14.60
2023-03-15T15:04:38.516Z,13.20
2023-03-15T15:07:15.288Z,11.80
2023-03-15T15:09:52.690Z,10.00
2023-03-15T15:12:26.189Z,13.80
2023-03-15T15:14:59.646Z,14.00
2023-03-15T15:17:33.133Z,11.10
2023-03-15T15:20:07.822Z,11.30
2023-03-15T15:22:41.449Z,11.20
2023-03-15T15:25:22.333Z,12.20
2023-03-15T15:27:55.617Z,10.20
2023-03-15T15:30:30.504Z,11.80
2023-03-15T15:33:04.054Z,11.70
2023-03-15T15:35:37.320Z,10.70
2023-03-15T15:38:16.292Z,12.40
2023-03-15T15:40:49.321Z,11.30
2023-03-15T15:43:22.466Z,14.90
2023-03-15T15:45:55.731Z,12.00
2023-03-15T15:48:28.821Z,12.30
2023-03-15T15:51:02.522Z,12.60
2023-03-15T15:53:36.022Z,15.40
2023-03-15T15:56:13.406Z,23.20
2023-03-15T15:58:48.551Z,18.70
2023-03-15T16:01:22.304Z,16.00
2023-03-15T16:03:55.775Z,17.00
2023-03-15T16:06:28.979Z,13.00
2023-03-15T16:09:02.588Z,13.80
2023-03-15T16:11:35.576Z,12.50
2023-03-15T16:14:08.789Z,14.50
2023-03-15T16:16:42.882Z,14.60
2023-03-15T16:19:15.933Z,17.90
2023-03-15T16:21:55.113Z,18.30
2023-03-15T16:24:36.502Z,16.40
2023-03-15T16:27:10.622Z,15.60
2023-03-15T16:29:50.813Z,17.70
2023-03-15T16:32:40.903Z,21.30
2023-03-15T16:35:18.738Z,20.90
2023-03-15T16:37:57.007Z,19.40
2023-03-15T16:40:35.964Z,15.70
2023-03-15T16:43:10.097Z,17.00
2023-03-15T16:45:42.949Z,16.50
2023-03-15T16:48:16.105Z,13.50
2023-03-15T16:50:49.302Z,14.60
2023-03-15T16:53:25.456Z,16.50
2023-03-15T16:55:58.495Z,14.80
2023-03-15T16:58:31.558Z,15.60
2023-03-15T17:01:04.693Z,17.40
2023-03-15T17:03:38.108Z,19.50
2023-03-15T17:06:26.562Z,25.50
2023-03-15T17:09:05.224Z,19.80
2023-03-15T17:11:45.046Z,17.10
2023-03-15T17:14:34.986Z,35.50
2023-03-15T17:17:07.926Z,65.90
2023-03-15T17:19:41.193Z,61.70
2023-03-15T17:22:15.299Z,58.30
2023-03-15T17:24:51.481Z,28.10
2023-03-15T17:27:44.807Z,146.20
2023-03-15T17:30:32.961Z,194.00
2023-03-15T17:33:07.133Z,147.70
2023-03-15T17:35:45.573Z,69.50
2023-03-15T17:38:22.582Z,40.30
2023-03-15T17:40:56.093Z,27.50
2023-03-15T17:43:32.501Z,43.40
2023-03-15T17:46:05.808Z,39.60
2023-03-15T17:48:39.046Z,19.20
2023-03-15T17:51:20.407Z,72.20
2023-03-15T17:53:56.290Z,32.10
2023-03-15T17:56:32.839Z,21.80
2023-03-15T17:59:06.171Z,94.50
2023-03-15T18:01:41.999Z,237.20
2023-03-15T18:04:20.888Z,71.50
2023-03-15T18:06:55.290Z,55.10
2023-03-15T18:09:28.918Z,31.30
2023-03-15T18:12:04.872Z,15.10
2023-03-15T18:14:38.887Z,15.10
2023-03-15T18:17:13.298Z,17.60
2023-03-15T18:19:46.819Z,14.00
2023-03-15T18:22:20.596Z,16.40
2023-03-15T18:24:58.235Z,18.30
2023-03-15T18:27:32.503Z,17.70
2023-03-15T18:30:06.323Z,21.70
2023-03-15T18:32:39.971Z,19.40
2023-03-15T18:35:24.370Z,24.00
2023-03-15T18:37:58.481Z,23.30
2023-03-15T18:40:33.181Z,20.80
2023-03-15T18:43:06.287Z,18.90
2023-03-15T18:45:43.427Z,16.00
2023-03-15T18:48:18.292Z,17.60
2023-03-15T18:50:53.003Z,19.50
2023-03-15T18:53:26.602Z,17.40
2023-03-15T18:55:59.734Z,16.90
2023-03-15T18:58:36.215Z,20.30
2023-03-15T19:01:09.231Z,19.80
2023-03-15T19:03:42.433Z,22.00
2023-03-15T19:06:16.218Z,29.70
2023-03-15T19:08:54.091Z,25.90
2023-03-15T19:11:28.359Z,42.60
2023-03-15T19:14:04.812Z,28.20
2023-03-15T19:16:38.275Z,26.30
2023-03-15T19:19:11.823Z,26.60
2023-03-15T19:21:45.043Z,23.90
2023-03-15T19:24:18.303Z,23.80
2023-03-15T19:26:51.768Z,20.20
2023-03-15T19:29:24.920Z,20.10
2023-03-15T19:31:58.411Z,17.10
2023-03-15T19:34:32.222Z,19.10
2023-03-15T19:37:05.426Z,16.80
2023-03-15T19:39:38.338Z,19.00
2023-03-15T19:42:11.767Z,22.30
2023-03-15T19:44:49.198Z,21.90
2023-03-15T19:47:22.610Z,25.10
2023-03-15T19:49:55.792Z,25.00
2023-03-15T19:52:29.751Z,22.60
2023-03-15T19:55:03.408Z,23.40
2023-03-15T19:57:36.320Z,21.20
2023-03-15T20:00:16.502Z,20.60
2023-03-15T20:02:49.700Z,18.80
2023-03-15T20:05:23.434Z,17.90
2023-03-15T20:07:56.542Z,19.20
2023-03-15T20:10:29.482Z,20.60
2023-03-15T20:13:02.912Z,20.20
2023-03-15T20:15:36.049Z,20.60
2023-03-15T20:18:13.686Z,21.00
2023-03-15T20:20:47.312Z,24.10
2023-03-15T20:23:20.518Z,18.20
2023-03-15T20:25:53.869Z,16.00
2023-03-15T20:28:27.500Z,16.90
2023-03-15T20:31:00.577Z,16.70
2023-03-15T20:33:34.174Z,16.40
2023-03-15T20:36:07.689Z,22.70
2023-03-15T20:38:40.588Z,20.90
2023-03-15T20:41:18.949Z,17.20
2023-03-15T20:43:52.740Z,18.50
2023-03-15T20:46:25.694Z,16.40
2023-03-15T20:48:59.232Z,16.70
2023-03-15T20:51:32.499Z,19.40
2023-03-15T20:54:05.610Z,16.00
2023-03-15T20:56:38.933Z,15.70
2023-03-15T20:59:12.665Z,15.30
2023-03-15T21:01:46.450Z,16.10
2023-03-15T21:04:23.128Z,12.00
2023-03-15T21:06:56.456Z,16.50
2023-03-15T21:09:29.590Z,17.10
2023-03-15T21:12:03.703Z,11.10
2023-03-15T21:14:37.588Z,11.70
2023-03-15T21:17:10.513Z,14.60
2023-03-15T21:19:43.517Z,11.20
2023-03-15T21:22:16.594Z,10.40
2023-03-15T21:24:55.849Z,13.50
2023-03-15T21:27:31.064Z,14.10
2023-03-15T21:30:04.284Z,14.00
2023-03-15T21:32:38.724Z,12.40
2023-03-15T21:35:12.236Z,10.90
2023-03-15T21:37:45.618Z,9.80
2023-03-15T21:40:19.145Z,7.80
2023-03-15T21:42:52.503Z,15.70
2023-03-15T21:45:25.622Z,9.20
2023-03-15T21:47:58.904Z,9.80
2023-03-15T21:50:31.973Z,7.50
2023-03-15T21:53:05.019Z,9.80
2023-03-15T21:55:39.209Z,8.00
2023-03-15T21:58:12.571Z,9.80
2023-03-15T22:00:45.833Z,9.80
2023-03-15T22:03:19.408Z,7.30
2023-03-15T22:05:53.147Z,11.30
2023-03-15T22:08:26.832Z,8.60
2023-03-15T22:11:02.037Z,8.90
2023-03-15T22:13:34.964Z,11.90
2023-03-15T22:16:08.531Z,7.60
2023-03-15T22:18:42.077Z,7.60
2023-03-15T22:21:15.272Z,7.70
2023-03-15T22:23:48.383Z,12.20
2023-03-15T22:26:23.154Z,9.60
2023-03-15T22:28:56.631Z,8.50
2023-03-15T22:31:32.353Z,10.20
2023-03-15T22:34:05.705Z,10.60
2023-03-15T22:36:38.504Z,7.60
2023-03-15T22:39:11.951Z,9.00
2023-03-15T22:41:44.826Z,9.90
2023-03-15T22:44:17.570Z,9.80
2023-03-15T22:46:50.567Z,11.00
2023-03-15T22:49:24.230Z,7.60
2023-03-15T22:51:57.159Z,8.70
2023-03-15T22:54:30.821Z,10.40
2023-03-15T22:57:04.196Z,11.30
2023-03-15T22:59:37.416Z,8.40
2023-03-15T23:02:13.123Z,10.70
2023-03-15T23:04:46.453Z,9.70
2023-03-15T23:07:19.675Z,10.30
2023-03-15T23:09:53.424Z,9.50
2023-03-15T23:12:35.906Z,12.30
2023-03-15T23:15:12.779Z,9.20
2023-03-15T23:17:47.246Z,9.60
2023-03-15T23:20:21.243Z,9.20
2023-03-15T23:22:54.699Z,7.30
2023-03-15T23:25:31.565Z,8.60
2023-03-15T23:28:04.994Z,10.00
2023-03-15T23:30:39.341Z,7.90
2023-03-15T23:33:12.503Z,10.50
2023-03-15T23:35:45.933Z,7.50
2023-03-15T23:38:19.073Z,7.80
2023-03-15T23:40:59.366Z,8.60
2023-03-15T23:43:32.694Z,9.20
2023-03-15T23:46:07.673Z,9.60
2023-03-15T23:48:40.932Z,7.90
2023-03-15T23:51:13.666Z,7.80
2023-03-15T23:53:46.668Z,9.20
2023-03-15T23:56:19.249Z,10.30
2023-03-15T23:58:52.511Z,10.60
